Time;durP1;ratioP1;P1;durP2;ratioP2;P2;SDS_P1;SDS_P2;PMS_P1;PMS_P2;Temp;Humidity;BMP_temperature;BMP_pressure;BME280_temperature;BME280_humidity;BME280_pressure;Samples;Min_cycle;Max_cycle;Signal;HPM_P1;HPM_P2
2022/12/01 04:56:56;;;;;;;19.87;11.63;;;;;;;5.84;63.85;101217.44;5606444;31;82562;-54
2022/12/01 04:59:58;;;;;;;21.98;11.70;;;;;;;5.84;63.85;101217.44;5584229;31;33334;-55
2022/12/01 05:03:00;;;;;;;17.98;11.88;;;;;;;5.33;65.63;101225.91;5583716;32;34164;-55
2022/12/01 05:06:06;;;;;;;19.17;11.30;;;;;;;5.29;63.74;101228.22;5583922;31;34276;-54
2022/12/01 05:09:12;;;;;;;19.40;11.95;;;;;;;5.05;68.23;101229.94;5583870;31;34398;-54
2022/12/01 05:12:19;;;;;;;20.30;11.82;;;;;;;5.02;66.15;101222.41;5583733;31;33133;-55
2022/12/01 05:15:21;;;;;;;19.98;11.95;;;;;;;4.81;67.51;101225.53;5583742;32;34214;-54
2022/12/01 05:18:23;;;;;;;21.10;12.07;;;;;;;4.87;65.77;101224.66;5583728;31;33610;-55
2022/12/01 05:21:25;;;;;;;19.02;12.70;;;;;;;5.02;65.95;101222.41;5583631;32;34271;-54
2022/12/01 05:24:27;;;;;;;23.25;13.30;;;;;;;4.95;67.58;101222.50;5583601;32;33558;-54
2022/12/01 05:27:29;;;;;;;20.55;13.30;;;;;;;5.05;65.98;101219.31;5583046;32;33612;-55
2022/12/01 05:30:32;;;;;;;22.37;12.70;;;;;;;5.07;65.55;101222.56;5583679;32;33709;-55
2022/12/01 05:33:34;;;;;;;24.37;12.88;;;;;;;4.93;65.76;101221.91;5583484;31;34335;-55
2022/12/01 05:36:36;;;;;;;21.17;12.30;;;;;;;4.87;65.30;101220.16;5583382;31;33275;-55
2022/12/01 05:39:39;;;;;;;21.65;12.32;;;;;;;4.79;70.01;101222.28;5583489;32;34378;-55
2022/12/01 05:42:41;;;;;;;22.83;12.90;;;;;;;4.54;68.57;101223.16;5582324;32;34433;-55
2022/12/01 05:45:43;;;;;;;24.45;14.90;;;;;;;4.60;75.56;101224.09;5579494;32;32160;-54
2022/12/01 05:48:46;;;;;;;21.05;13.07;;;;;;;4.55;67.79;101224.75;5583182;32;33553;-55
2022/12/01 05:51:48;;;;;;;24.30;13.35;;;;;;;4.71;67.87;101218.88;5577508;32;33710;-56
2022/12/01 05:54:50;;;;;;;26.65;14.52;;;;;;;4.61;68.56;101223.09;5583063;31;33793;-55
2022/12/01 05:57:52;;;;;;;25.88;14.00;;;;;;;4.76;67.88;101226.19;5582540;31;33725;-55
2022/12/01 06:00:54;;;;;;;27.55;15.07;;;;;;;4.53;68.25;101234.78;5581861;32;33530;-55
2022/12/01 06:03:57;;;;;;;28.87;14.80;;;;;;;4.45;72.58;101230.56;5579380;31;34418;-55
2022/12/01 06:06:59;;;;;;;35.15;15.95;;;;;;;4.48;72.50;101240.75;5568193;32;33734;-54
2022/12/01 06:10:02;;;;;;;27.37;15.77;;;;;;;4.63;70.73;101236.94;5560278;32;33412;-55
2022/12/01 06:13:04;;;;;;;24.48;15.05;;;;;;;4.53;69.08;101239.28;5558039;32;34317;-55
2022/12/01 06:16:07;;;;;;;24.27;16.23;;;;;;;4.65;68.03;101242.84;5567239;32;33586;-55
2022/12/01 06:19:09;;;;;;;26.23;16.48;;;;;;;4.51;71.22;101252.78;5567118;32;33700;-56
2022/12/01 06:22:11;;;;;;;33.13;16.23;;;;;;;4.80;67.77;101248.62;5562757;32;34282;-55
2022/12/01 06:25:14;;;;;;;30.27;17.70;;;;;;;4.50;70.77;101247.69;5561614;32;33584;-55
2022/12/01 06:28:16;;;;;;;33.97;19.48;;;;;;;4.43;69.71;101253.06;5565340;32;33802;-55
2022/12/01 06:31:18;;;;;;;31.85;18.15;;;;;;;4.46;68.77;101250.78;5566565;32;34191;-55
2022/12/01 06:34:21;;;;;;;33.97;17.77;;;;;;;4.42;72.93;101256.75;5563724;32;33535;-55
2022/12/01 06:37:23;;;;;;;36.85;20.62;;;;;;;4.30;71.82;101248.66;5567097;32;33747;-55
2022/12/01 06:40:26;;;;;;;35.25;18.85;;;;;;;4.37;69.71;101246.78;5566021;31;34314;-56
2022/12/01 06:43:28;;;;;;;37.95;18.85;;;;;;;4.35;71.71;101246.19;5566125;32;33697;-55
2022/12/01 06:46:30;;;;;;;31.30;19.33;;;;;;;4.42;69.29;101249.59;5562081;31;33204;-54
2022/12/01 06:49:33;;;;;;;31.30;18.15;;;;;;;4.53;68.43;101239.28;5568784;32;34182;-54
2022/12/01 06:52:36;;;;;;;30.35;18.25;;;;;;;4.35;71.54;101242.72;5566796;32;33621;-55
2022/12/01 06:55:42;;;;;;;40.53;19.12;;;;;;;4.40;71.93;101237.56;5564070;32;33722;-55
2022/12/01 06:58:48;;;;;;;28.62;16.65;;;;;;;4.33;70.42;101239.47;5566530;32;33265;-55
2022/12/01 07:01:50;;;;;;;34.72;17.50;;;;;;;4.38;72.47;101247.59;5566833;32;34674;-54
2022/12/01 07:04:53;;;;;;;31.27;16.90;;;;;;;4.37;77.59;101251.25;5564185;32;34645;-55
2022/12/01 07:07:55;;;;;;;27.77;16.95;;;;;;;4.39;71.34;101244.72;5559149;32;33745;-55
2022/12/01 07:11:04;;;;;;;31.60;18.10;;;;;;;4.26;78.07;101247.47;5564164;32;34278;-54
2022/12/01 07:14:15;;;;;;;29.85;17.10;;;;;;;4.41;73.62;101260.44;5569404;32;33713;-55
2022/12/01 07:17:17;;;;;;;31.33;18.27;;;;;;;4.52;70.66;101251.75;5568306;32;33736;-55
2022/12/01 07:20:19;;;;;;;29.75;17.30;;;;;;;4.40;73.60;101254.31;5564581;32;33679;-55
2022/12/01 07:23:21;;;;;;;29.17;18.37;;;;;;;4.42;74.26;101254.91;5565269;32;34294;-55
2022/12/01 07:26:23;;;;;;;34.53;17.90;;;;;;;4.46;73.08;101263.25;5568161;32;33613;-55
2022/12/01 07:29:26;;;;;;;33.47;19.05;;;;;;;4.43;73.34;101261.81;5566828;32;34370;-55
2022/12/01 07:32:28;;;;;;;33.42;19.70;;;;;;;4.51;70.64;101260.75;5566739;32;34285;-55
2022/12/01 07:35:30;;;;;;;34.67;20.00;;;;;;;4.65;73.15;101267.56;5563075;32;33618;-55
2022/12/01 07:38:33;;;;;;;39.83;20.52;;;;;;;4.77;71.20;101258.84;5563414;32;34203;-54
2022/12/01 07:41:36;;;;;;;31.45;18.90;;;;;;;4.79;69.22;101248.84;5561099;32;33254;-54
2022/12/01 07:44:38;;;;;;;30.98;19.10;;;;;;;5.00;80.53;101271.50;5566316;32;34229;-54
2022/12/01 07:47:40;;;;;;;34.88;19.05;;;;;;;4.92;69.13;101260.13;5561909;32;34424;-54
2022/12/01 07:50:42;;;;;;;31.35;17.77;;;;;;;5.00;67.23;101259.03;5561491;32;35300;-55
2022/12/01 07:53:46;;;;;;;30.08;18.15;;;;;;;4.94;79.18;101260.72;5560239;32;33563;-55
2022/12/01 07:56:48;;;;;;;30.27;18.17;;;;;;;4.99;69.47;101257.41;5555729;32;33255;-55
2022/12/01 07:59:51;;;;;;;35.00;18.83;;;;;;;5.22;66.80;101254.06;5555804;32;32560;-54
2022/12/01 08:02:53;;;;;;;34.45;18.27;;;;;;;5.16;67.20;101265.59;5561934;32;33741;-55
2022/12/01 08:05:57;;;;;;;34.55;18.15;;;;;;;5.33;66.36;101266.63;5565270;32;34402;-55
2022/12/01 08:08:59;;;;;;;45.33;18.80;;;;;;;5.36;66.93;101257.37;5559888;32;33438;-56
2022/12/01 08:12:02;;;;;;;36.13;20.42;;;;;;;5.39;77.28;101270.22;5555038;32;34245;-55
2022/12/01 08:15:04;;;;;;;41.40;22.33;;;;;;;5.41;67.88;101263.66;5557988;32;34264;-55
2022/12/01 08:18:06;;;;;;;38.53;21.83;;;;;;;5.72;66.80;101263.66;5562976;32;33631;-54
2022/12/01 08:21:12;;;;;;;34.15;20.80;;;;;;;5.73;81.04;101270.59;5566985;32;33778;-54
2022/12/01 08:24:14;;;;;;;33.95;21.33;;;;;;;5.64;67.99;101262.94;5564473;32;33338;-54
2022/12/01 08:27:17;;;;;;;43.42;21.58;;;;;;;5.71;66.42;101262.84;5566154;32;33890;-55
2022/12/01 08:30:20;;;;;;;36.22;21.75;;;;;;;5.86;65.71;101273.06;5567231;32;33686;-55
2022/12/01 08:33:23;;;;;;;33.72;19.83;;;;;;;5.91;70.78;101257.25;5567894;32;33617;-55
2022/12/01 08:36:25;;;;;;;36.15;21.83;;;;;;;5.76;67.05;101265.66;5561208;32;34407;-55
2022/12/01 08:39:28;;;;;;;34.50;20.25;;;;;;;5.82;66.43;101263.94;5561609;32;34214;-55
2022/12/01 08:42:30;;;;;;;31.77;20.33;;;;;;;6.03;65.79;101262.66;5566761;32;34429;-54
2022/12/01 08:45:32;;;;;;;38.75;22.08;;;;;;;6.30;64.76;101274.50;5561694;32;33721;-55
2022/12/01 08:48:35;;;;;;;35.10;21.42;;;;;;;6.21;65.93;101272.41;5558961;32;33632;-55
2022/12/01 08:51:37;;;;;;;33.15;20.50;;;;;;;6.25;65.67;101266.38;5565916;32;33682;-55
2022/12/01 08:54:39;;;;;;;30.65;20.25;;;;;;;6.44;65.01;101268.94;5567324;32;34355;-55
2022/12/01 08:57:41;;;;;;;32.60;20.67;;;;;;;6.53;64.32;101263.06;5567348;32;33632;-55
2022/12/01 09:00:44;;;;;;;38.72;21.50;;;;;;;6.48;64.11;101259.44;5563772;32;34418;-55
2022/12/01 09:03:46;;;;;;;32.00;20.77;;;;;;;6.54;64.55;101270.00;5565796;32;34373;-54
2022/12/01 09:06:50;;;;;;;38.75;21.20;;;;;;;6.59;64.44;101270.13;5566531;32;33594;-55
2022/12/01 09:09:52;;;;;;;35.85;20.42;;;;;;;6.75;64.17;101263.25;5568420;32;33891;-54
2022/12/01 09:12:54;;;;;;;34.28;20.98;;;;;;;6.92;64.50;101270.53;5567097;32;33716;-55
2022/12/01 09:16:06;;;;;;;26.00;16.92;;;;;;;6.86;66.97;101264.31;5568151;32;33588;-55
2022/12/01 09:19:09;;;;;;;29.90;18.60;;;;;;;7.04;69.20;101268.69;5565771;32;33266;-55
2022/12/01 09:22:14;;;;;;;30.80;20.48;;;;;;;7.04;64.24;101264.16;5563196;32;33658;-55
2022/12/01 09:25:16;;;;;;;35.63;21.37;;;;;;;7.14;62.47;101260.09;5561211;32;33213;-55
2022/12/01 09:28:19;;;;;;;25.40;16.12;;;;;;;7.10;63.11;101264.28;5563963;32;33591;-55
2022/12/01 09:31:22;;;;;;;21.20;14.07;;;;;;;7.58;70.63;101249.72;5565537;32;34260;-55
2022/12/01 09:34:25;;;;;;;22.33;14.93;;;;;;;7.81;75.10;101248.81;5561820;32;34258;-55
2022/12/01 09:37:27;;;;;;;28.35;15.93;;;;;;;7.75;60.56;101245.25;5556876;32;33430;-55
2022/12/01 09:40:41;;;;;;;23.98;14.38;;;;;;;7.88;62.79;101242.28;5564354;32;33633;-54
2022/12/01 09:44:01;;;;;;;31.42;15.15;;;;;;;7.98;68.58;101245.12;5563364;32;33693;-56
2022/12/01 09:47:17;;;;;;;20.42;13.07;;;;;;;8.28;75.99;101236.00;5565811;32;34284;-55
2022/12/01 09:50:24;;;;;;;20.85;13.00;;;;;;;8.41;73.72;101240.19;5567533;32;34353;-55
2022/12/01 09:53:28;;;;;;;20.48;12.85;;;;;;;8.31;66.07;101235.50;5566533;32;33464;-55
2022/12/01 09:56:41;;;;;;;24.00;13.75;;;;;;;8.19;69.47;101232.91;5566544;32;33628;-55
2022/12/01 09:59:44;;;;;;;21.17;13.70;;;;;;;8.24;66.05;101230.34;5565621;32;33880;-56
2022/12/01 10:03:13;;;;;;;20.30;13.55;;;;;;;8.10;65.09;101230.88;5566816;32;33026;-55
2022/12/01 10:06:23;;;;;;;23.58;13.57;;;;;;;7.96;57.80;101222.38;5568782;32;33628;-55
2022/12/01 10:09:39;;;;;;;22.55;13.50;;;;;;;8.20;67.33;101223.03;5564813;32;34236;-56
2022/12/01 10:12:45;;;;;;;22.00;14.87;;;;;;;7.94;64.04;101221.81;5558830;32;34197;-55
2022/12/01 10:15:53;;;;;;;19.42;12.82;;;;;;;7.98;63.88;101217.63;5568718;32;33932;-55
2022/12/01 10:19:11;;;;;;;18.70;12.73;;;;;;;8.22;64.25;101207.59;5566522;31;33793;-55
2022/12/01 10:22:54;;;;;;;23.73;14.45;;;;;;;8.26;76.48;101215.91;5564675;32;33696;-55
2022/12/01 10:26:02;;;;;;;22.25;14.38;;;;;;;8.25;61.94;101215.12;5545292;31;33659;-55
2022/12/01 10:29:11;;;;;;;20.42;14.25;;;;;;;8.08;70.35;101207.09;5559933;32;33688;-55
2022/12/01 10:32:18;;;;;;;22.42;14.45;;;;;;;8.39;58.73;101205.72;5566230;32;33631;-55
2022/12/01 10:35:23;;;;;;;21.42;14.50;;;;;;;8.29;66.86;101199.41;5563394;32;32998;-55
2022/12/01 10:38:34;;;;;;;20.35;14.68;;;;;;;8.31;66.72;101206.13;5566515;32;34382;-55
2022/12/01 10:41:38;;;;;;;24.48;14.65;;;;;;;8.44;65.98;101203.16;5567004;32;33628;-55
2022/12/01 10:44:43;;;;;;;23.45;14.98;;;;;;;8.63;62.07;101197.50;5563972;32;33708;-55
2022/12/01 10:48:15;;;;;;;21.33;14.87;;;;;;;8.73;59.14;101194.16;5564342;32;33729;-55
2022/12/01 10:51:19;;;;;;;23.87;14.82;;;;;;;8.68;71.62;101195.72;5566523;32;34433;-55
2022/12/01 10:54:30;;;;;;;20.80;15.02;;;;;;;8.66;60.92;101194.34;5568034;32;33353;-55
2022/12/01 10:57:36;;;;;;;20.33;14.25;;;;;;;8.43;56.22;101193.50;5564738;32;34328;-55
2022/12/01 11:00:41;;;;;;;23.15;14.80;;;;;;;8.66;73.81;101197.00;5567380;32;34396;-55
2022/12/01 11:04:50;;;;;;;23.40;15.43;;;;;;;8.93;77.76;101189.06;5568676;32;34499;-55
2022/12/01 11:07:52;;;;;;;21.08;14.90;;;;;;;8.85;61.34;101184.16;5568873;32;33765;-55
2022/12/01 11:10:55;;;;;;;19.85;14.90;;;;;;;8.90;59.74;101179.66;5565132;32;34446;-55
2022/12/01 11:14:01;;;;;;;19.85;14.10;;;;;;;9.09;60.17;101177.47;5567581;32;33873;-55
2022/12/01 11:17:18;;;;;;;19.30;14.43;;;;;;;8.96;56.84;101172.53;5564598;32;33805;-56
2022/12/01 11:20:33;;;;;;;22.02;14.73;;;;;;;8.85;68.09;101166.25;5561307;32;34588;-55
2022/12/01 11:23:47;;;;;;;23.00;15.30;;;;;;;8.74;55.94;101169.88;5562217;32;33898;-56
2022/12/01 11:26:49;;;;;;;22.50;14.23;;;;;;;8.77;70.10;101161.31;5560945;32;31842;-55
2022/12/01 11:30:01;;;;;;;32.72;14.93;;;;;;;9.06;69.91;101156.59;5562490;32;34354;-56
2022/12/01 11:33:04;;;;;;;30.10;14.82;;;;;;;9.09;76.91;101155.28;5566007;32;33746;-55
2022/12/01 11:36:08;;;;;;;24.00;14.52;;;;;;;9.25;56.91;101164.28;5561071;32;33317;-55
2022/12/01 11:39:25;;;;;;;21.00;13.93;;;;;;;9.01;60.25;101161.09;5550159;32;34418;-55
2022/12/01 11:42:30;;;;;;;19.02;14.65;;;;;;;8.96;57.30;101150.31;5561308;32;33666;-55
2022/12/01 11:45:38;;;;;;;22.42;14.10;;;;;;;8.75;61.72;101142.06;5566878;32;33943;-55
2022/12/01 11:48:55;;;;;;;25.35;16.35;;;;;;;8.58;54.94;101147.47;5564291;32;33659;-55
2022/12/01 11:52:16;;;;;;;21.77;15.05;;;;;;;8.40;55.72;101150.44;5559920;32;34982;-55
2022/12/01 11:55:22;;;;;;;22.90;14.07;;;;;;;8.39;56.43;101149.63;5563858;32;34333;-57
2022/12/01 11:58:24;;;;;;;23.70;13.30;;;;;;;8.38;64.67;101153.34;5552788;32;33692;-56
2022/12/01 12:01:46;;;;;;;22.05;13.52;;;;;;;8.89;74.22;101150.50;5566928;32;34314;-55
2022/12/01 12:04:51;;;;;;;19.95;13.68;;;;;;;8.86;64.62;101143.78;5552356;32;33670;-55
2022/12/01 12:08:25;;;;;;;21.80;13.62;;;;;;;9.04;59.39;101140.00;5564879;32;34550;-55
2022/12/01 12:11:42;;;;;;;18.62;13.10;;;;;;;9.24;62.74;101139.41;5569026;32;33608;-55
2022/12/01 12:14:57;;;;;;;21.70;13.80;;;;;;;9.22;63.72;101143.38;5568183;32;33780;-55
2022/12/01 12:18:25;;;;;;;20.65;14.02;;;;;;;9.16;59.83;101143.31;5568261;32;34360;-55
2022/12/01 12:21:38;;;;;;;19.70;13.07;;;;;;;8.90;60.95;101134.19;5568848;32;34343;-55
2022/12/01 12:25:11;;;;;;;18.00;11.85;;;;;;;9.44;70.10;101133.44;5568574;32;33986;-55
2022/12/01 12:28:41;;;;;;;20.98;13.55;;;;;;;9.50;59.05;101132.41;5569102;32;33691;-55
2022/12/01 12:31:44;;;;;;;18.98;13.77;;;;;;;9.54;55.16;101133.53;5549791;32;33760;-55
2022/12/01 12:35:15;;;;;;;20.10;13.48;;;;;;;9.48;55.47;101129.19;5557334;32;33768;-55
2022/12/01 12:38:30;;;;;;;19.92;13.65;;;;;;;9.16;54.05;101127.25;5564071;32;33784;-55
2022/12/01 12:41:49;;;;;;;19.48;13.50;;;;;;;9.09;54.48;101141.91;5565357;32;34517;-55
2022/12/01 12:45:05;;;;;;;18.98;13.88;;;;;;;9.49;56.77;101146.84;5565335;32;33706;-55
2022/12/01 12:48:10;;;;;;;21.27;14.57;;;;;;;9.40;56.84;101137.66;5566790;32;34416;-55
2022/12/01 12:51:25;;;;;;;17.65;12.85;;;;;;;9.31;55.16;101131.97;5567645;32;34438;-55
2022/12/01 12:54:37;;;;;;;22.27;14.95;;;;;;;9.28;70.10;101129.81;5567474;32;33835;-54
2022/12/01 12:57:48;;;;;;;18.80;12.65;;;;;;;9.18;62.37;101127.03;5564712;32;33847;-55
2022/12/01 13:01:08;;;;;;;17.25;12.27;;;;;;;9.55;70.08;101131.66;5567907;32;33791;-56
2022/12/01 13:04:13;;;;;;;19.55;14.35;;;;;;;9.77;71.44;101127.03;5565731;32;33665;-55
2022/12/01 13:07:22;;;;;;;20.70;13.23;;;;;;;9.62;53.82;101116.19;5562643;32;34343;-55
2022/12/01 13:10:33;;;;;;;22.95;13.65;;;;;;;9.56;65.14;101122.56;5567563;32;34362;-55
2022/12/01 13:13:50;;;;;;;16.37;11.50;;;;;;;9.75;64.22;101123.78;5566694;32;34507;-55
2022/12/01 13:16:58;;;;;;;19.95;10.13;;;;;;;9.53;54.76;101110.47;5568999;32;34307;-54
2022/12/01 13:20:00;;;;;;;22.20;13.43;;;;;;;9.39;54.38;101115.44;5569448;32;33660;-55
2022/12/01 13:23:03;;;;;;;21.02;14.40;;;;;;;9.12;53.97;101126.16;5570375;32;34311;-56
2022/12/01 13:26:08;;;;;;;20.62;13.13;;;;;;;9.44;60.58;101129.94;5568082;32;33779;-55
2022/12/01 13:29:15;;;;;;;17.70;13.07;;;;;;;9.34;54.78;101120.78;5560771;32;33827;-55
2022/12/01 13:32:34;;;;;;;25.45;14.32;;;;;;;9.31;65.09;101123.94;5570381;32;34243;-55
2022/12/01 13:35:38;;;;;;;21.58;13.45;;;;;;;9.49;56.72;101125.44;5570115;32;33761;-55
2022/12/01 13:38:40;;;;;;;18.35;12.55;;;;;;;9.70;62.67;101129.13;5570279;32;33849;-55
2022/12/01 13:41:44;;;;;;;15.77;12.05;;;;;;;9.77;59.21;101128.91;5569097;32;33773;-55
2022/12/01 13:44:57;;;;;;;16.10;9.63;;;;;;;9.62;70.05;101130.38;5568919;32;33613;-55
2022/12/01 13:48:01;;;;;;;12.50;7.82;;;;;;;9.71;54.46;101129.91;5569786;32;33693;-55
2022/12/01 13:51:03;;;;;;;14.57;8.23;;;;;;;9.52;54.82;101129.47;5569956;32;33704;-56
2022/12/01 13:54:27;;;;;;;12.43;7.78;;;;;;;9.56;66.15;101123.34;5568866;32;33619;-55
2022/12/01 13:57:32;;;;;;;14.87;8.20;;;;;;;9.70;61.69;101125.59;5569657;32;33771;-55
2022/12/01 14:00:35;;;;;;;12.05;8.30;;;;;;;9.73;57.87;101122.41;5569182;31;34254;-56
2022/12/01 14:03:39;;;;;;;13.50;7.97;;;;;;;9.75;61.58;101126.47;5564656;32;33673;-56
2022/12/01 14:06:49;;;;;;;13.48;8.18;;;;;;;9.75;63.48;101126.47;5566534;32;33581;-56
2022/12/01 14:09:56;;;;;;;12.27;7.90;;;;;;;9.56;53.30;101117.19;5569975;32;33597;-55
2022/12/01 14:13:02;;;;;;;13.93;8.43;;;;;;;9.39;54.66;101122.66;5570030;32;33688;-55
2022/12/01 14:16:05;;;;;;;;;;;;;;;9.48;61.11;101125.69;5569841;32;33572;-55
2022/12/01 14:19:27;;;;;;;19.55;8.57;;;;;;;9.54;63.15;101114.78;5569873;32;33897;-55
2022/12/01 14:22:33;;;;;;;12.90;8.32;;;;;;;9.74;59.89;101116.81;5570248;32;33739;-55
2022/12/01 14:25:36;;;;;;;15.32;8.90;;;;;;;9.77;62.69;101118.19;5569914;32;33826;-55
2022/12/01 14:28:53;;;;;;;13.30;8.20;;;;;;;9.61;56.61;101110.03;5569934;32;33693;-55
2022/12/01 14:32:19;;;;;;;14.48;8.35;;;;;;;9.64;64.18;101117.53;5570297;32;34282;-55
2022/12/01 14:35:22;;;;;;;;;;;;;;;9.71;60.96;101117.34;5570210;32;33639;-55
2022/12/01 14:38:26;;;;;;;21.52;8.02;;;;;;;9.61;54.81;101114.56;5569728;32;34034;-55
2022/12/01 14:42:01;;;;;;;15.23;8.27;;;;;;;9.22;61.96;101124.66;5568652;32;33645;-55
2022/12/01 14:45:06;;;;;;;15.13;8.95;;;;;;;9.15;58.64;101116.84;5569949;32;34252;-55
2022/12/01 14:48:14;;;;;;;13.13;8.30;;;;;;;8.89;60.12;101111.22;5569752;32;33726;-55
2022/12/01 14:51:30;;;;;;;14.30;8.85;;;;;;;8.85;57.59;101114.66;5569567;32;35024;-55
2022/12/01 14:54:44;;;;;;;19.67;8.98;;;;;;;8.85;59.07;101118.13;5569762;32;33647;-55
2022/12/01 14:57:51;;;;;;;17.23;8.60;;;;;;;8.70;57.54;101124.09;5569853;32;34338;-55
2022/12/01 15:01:02;;;;;;;16.40;9.00;;;;;;;8.61;58.32;101122.94;5569402;32;33632;-55
2022/12/01 15:04:05;;;;;;;23.20;9.15;;;;;;;8.52;59.89;101124.41;5569958;32;33755;-54
2022/12/01 15:07:07;;;;;;;17.85;9.30;;;;;;;8.55;60.98;101123.12;5568286;32;33861;-54
2022/12/01 15:10:19;;;;;;;16.60;9.23;;;;;;;8.51;60.09;101128.16;5569283;32;33848;-55
2022/12/01 15:13:29;;;;;;;19.42;9.57;;;;;;;8.41;59.95;101128.00;5569548;32;33503;-55
2022/12/01 15:16:39;;;;;;;17.77;10.15;;;;;;;8.42;59.78;101132.28;5569693;32;33968;-55
2022/12/01 15:19:42;;;;;;;27.85;11.00;;;;;;;8.28;62.00;101122.97;5569223;32;33910;-56
2022/12/01 15:22:45;;;;;;;23.30;10.52;;;;;;;8.23;63.00;101121.84;5569485;32;33633;-55
2022/12/01 15:25:47;;;;;;;21.52;10.95;;;;;;;8.16;60.49;101125.75;5569518;32;33813;-54
2022/12/01 15:28:50;;;;;;;28.83;11.88;;;;;;;8.10;61.54;101124.87;5569823;32;33661;-55
2022/12/01 15:31:55;;;;;;;18.92;11.68;;;;;;;8.13;61.62;101124.38;5569404;32;33779;-55
2022/12/01 15:35:03;;;;;;;19.40;11.17;;;;;;;8.18;60.58;101126.34;5550255;32;33602;-55
2022/12/01 15:38:15;;;;;;;20.12;12.05;;;;;;;8.26;61.29;101123.22;5561154;32;34307;-55
2022/12/01 15:41:21;;;;;;;20.65;12.10;;;;;;;8.18;71.31;101123.66;5568868;32;34028;-55
2022/12/01 15:44:35;;;;;;;20.77;11.60;;;;;;;8.11;61.84;101125.66;5569215;32;33671;-55
2022/12/01 15:47:49;;;;;;;17.92;12.13;;;;;;;8.04;66.09;101125.03;5567949;32;33761;-55
2022/12/01 15:51:05;;;;;;;24.90;13.43;;;;;;;8.05;62.71;101127.47;5568938;32;33717;-55
2022/12/01 15:54:19;;;;;;;25.02;13.13;;;;;;;8.07;61.98;101129.91;5569441;32;33885;-55
2022/12/01 15:57:23;;;;;;;31.42;14.70;;;;;;;7.98;62.06;101132.19;5569175;32;33731;-55
2022/12/01 16:00:26;;;;;;;25.60;14.23;;;;;;;7.90;62.00;101122.72;5569157;32;34027;-55
2022/12/01 16:03:29;;;;;;;29.85;17.42;;;;;;;7.81;62.32;101132.16;5569426;32;33645;-55
2022/12/01 16:06:35;;;;;;;30.73;18.00;;;;;;;7.81;64.01;101134.03;5568820;32;33699;-55
2022/12/01 16:09:38;;;;;;;22.48;14.85;;;;;;;7.75;63.03;101128.63;5561285;32;34316;-55
2022/12/01 16:12:40;;;;;;;27.87;14.77;;;;;;;7.82;61.23;101131.13;5553269;32;33975;-55
2022/12/01 16:15:43;;;;;;;29.08;16.37;;;;;;;7.73;62.47;101133.41;5568930;32;33754;-55
2022/12/01 16:19:01;;;;;;;74.00;19.52;;;;;;;7.70;62.49;101133.06;5568315;32;34433;-55
2022/12/01 16:22:09;;;;;;;36.15;22.73;;;;;;;7.73;62.75;101124.59;5568270;32;34514;-55
2022/12/01 16:25:27;;;;;;;29.77;18.33;;;;;;;7.63;61.08;101124.41;5568803;32;33740;-55
2022/12/01 16:28:34;;;;;;;20.20;12.45;;;;;;;7.56;62.56;101132.59;5567983;32;33634;-55
2022/12/01 16:31:36;;;;;;;17.48;12.32;;;;;;;7.52;62.16;101129.59;5558966;32;33701;-55
2022/12/01 16:34:59;;;;;;;18.65;12.32;;;;;;;7.41;64.79;101127.78;5548566;32;33726;-55
2022/12/01 16:38:13;;;;;;;23.08;11.77;;;;;;;7.52;64.39;101136.78;5553605;32;33660;-55
